createdAt,value
2023-05-10T00:01:14.337Z,97480.97
2023-05-10T00:03:41.448Z,97479.47
2023-05-10T00:06:08.091Z,97482.25
2023-05-10T00:08:34.632Z,97473.56
2023-05-10T00:11:01.274Z,97474.72
2023-05-10T00:13:27.781Z,97475.63
2023-05-10T00:15:54.291Z,97471.47
2023-05-10T00:18:20.780Z,97470.75
2023-05-10T00:20:47.454Z,97464.69
2023-05-10T00:23:13.901Z,97469.16
2023-05-10T00:25:40.400Z,97456.81
2023-05-10T00:28:06.999Z,97465.28
2023-05-10T00:30:33.537Z,97451.81
2023-05-10T00:33:01.894Z,97454.66
2023-05-10T00:35:28.410Z,97450.94
2023-05-10T00:37:54.896Z,97445.00
2023-05-10T00:40:21.799Z,97445.59
2023-05-10T00:42:53.321Z,97443.69
2023-05-10T00:45:20.248Z,97440.03
2023-05-10T00:47:46.968Z,97437.22
2023-05-10T00:50:14.101Z,97441.13
2023-05-10T00:52:40.946Z,97433.44
2023-05-10T00:55:07.769Z,97438.16
2023-05-10T00:57:34.277Z,97432.97
2023-05-10T01:00:00.819Z,97424.66
2023-05-10T01:02:28.287Z,97428.47
2023-05-10T01:04:57.105Z,97435.91
2023-05-10T01:07:24.319Z,97423.53
2023-05-10T01:09:50.802Z,97427.59
2023-05-10T01:12:17.373Z,97425.94
2023-05-10T01:14:44.086Z,97419.22
2023-05-10T01:17:12.121Z,97424.28
2023-05-10T01:19:39.112Z,97420.31
2023-05-10T01:22:05.679Z,97422.56
2023-05-10T01:24:51.234Z,97417.72
2023-05-10T01:27:30.103Z,97415.28
2023-05-10T01:30:13.665Z,97416.41
2023-05-10T01:32:47.394Z,97421.72
2023-05-10T01:35:24.010Z,97424.41
2023-05-10T01:37:50.624Z,97420.72
2023-05-10T01:40:20.616Z,97421.13
2023-05-10T01:42:52.606Z,97423.84
2023-05-10T01:45:29.889Z,97417.66
2023-05-10T01:48:03.620Z,97411.88
2023-05-10T01:50:30.990Z,97416.78
2023-05-10T01:53:00.040Z,97410.56
2023-05-10T01:55:29.500Z,97417.50
2023-05-10T01:58:08.996Z,97418.63
2023-05-10T02:00:36.514Z,97410.56
2023-05-10T02:03:06.529Z,97409.88
2023-05-10T02:05:34.199Z,97410.31
2023-05-10T02:08:02.528Z,97404.69
2023-05-10T02:10:29.954Z,97402.44
2023-05-10T02:12:59.485Z,97403.44
2023-05-10T02:15:27.438Z,97396.94
2023-05-10T02:17:55.673Z,97404.09
2023-05-10T02:20:23.348Z,97397.38
2023-05-10T02:22:51.661Z,97394.53
2023-05-10T02:25:19.173Z,97398.50
2023-05-10T02:27:47.475Z,97398.03
2023-05-10T02:30:14.564Z,97396.22
2023-05-10T02:32:41.924Z,97387.47
2023-05-10T02:35:09.332Z,97396.22
2023-05-10T02:37:36.704Z,97397.06
2023-05-10T02:40:05.742Z,97387.88
2023-05-10T02:42:33.728Z,97387.16
2023-05-10T02:45:06.289Z,97394.53
2023-05-10T02:47:32.945Z,97392.56
2023-05-10T02:49:59.824Z,97392.00
2023-05-10T02:52:28.396Z,97389.44
2023-05-10T02:55:01.754Z,97398.19
2023-05-10T02:57:33.497Z,97390.59
2023-05-10T03:00:01.163Z,97387.19
2023-05-10T03:02:27.960Z,97383.25
2023-05-10T03:04:54.568Z,97385.34
2023-05-10T03:07:22.342Z,97386.34
2023-05-10T03:09:49.997Z,97387.31
2023-05-10T03:12:25.411Z,97390.88
2023-05-10T03:15:00.713Z,97389.44
2023-05-10T03:17:34.814Z,97385.66
2023-05-10T03:20:05.253Z,97391.88
2023-05-10T03:22:33.359Z,97389.72
2023-05-10T03:25:02.560Z,97389.19
2023-05-10T03:27:30.934Z,97387.06
2023-05-10T03:29:57.920Z,97393.69
2023-05-10T03:32:24.818Z,97387.63
2023-05-10T03:34:51.403Z,97395.97
2023-05-10T03:37:17.861Z,97395.94
2023-05-10T03:39:44.362Z,97398.34
2023-05-10T03:42:12.847Z,97393.16
2023-05-10T03:44:42.604Z,97406.56
2023-05-10T03:47:09.222Z,97389.47
2023-05-10T03:49:35.878Z,97395.53
2023-05-10T03:52:02.878Z,97393.16
2023-05-10T03:54:29.381Z,97399.91
2023-05-10T03:56:55.886Z,97393.69
2023-05-10T03:59:22.755Z,97391.72
2023-05-10T04:01:49.266Z,97392.41
2023-05-10T04:04:15.780Z,97399.34
2023-05-10T04:06:42.391Z,97395.94
2023-05-10T04:09:09.318Z,97400.47
2023-05-10T04:11:35.840Z,97407.53
2023-05-10T04:14:02.343Z,97404.13
2023-05-10T04:16:28.968Z,97407.78
2023-05-10T04:18:55.486Z,97407.09
2023-05-10T04:21:22.165Z,97405.38
2023-05-10T04:23:48.637Z,97412.53
2023-05-10T04:26:15.139Z,97402.06
2023-05-10T04:28:41.684Z,97418.00
2023-05-10T04:31:09.084Z,97406.47
2023-05-10T04:33:36.367Z,97407.81
2023-05-10T04:36:03.452Z,97413.50
2023-05-10T04:38:30.280Z,97420.50
2023-05-10T04:41:04.637Z,97408.56
2023-05-10T04:43:31.105Z,97412.56
2023-05-10T04:45:57.954Z,97417.00
2023-05-10T04:48:24.523Z,97412.88
2023-05-10T04:50:50.962Z,97413.13
2023-05-10T04:53:17.584Z,97406.72
2023-05-10T04:55:44.062Z,97408.63
2023-05-10T04:58:10.533Z,97417.56
2023-05-10T05:00:37.198Z,97419.25
2023-05-10T05:03:03.864Z,97418.03
2023-05-10T05:05:30.356Z,97410.47
2023-05-10T05:07:57.262Z,97414.16
2023-05-10T05:10:23.799Z,97416.31
2023-05-10T05:12:50.554Z,97413.75
2023-05-10T05:15:17.637Z,97418.03
2023-05-10T05:17:44.472Z,97415.41
2023-05-10T05:20:11.197Z,97417.09
2023-05-10T05:22:38.201Z,97416.13
2023-05-10T05:25:05.235Z,97417.56
2023-05-10T05:27:32.324Z,97419.56
2023-05-10T05:29:59.189Z,97420.84
2023-05-10T05:32:26.098Z,97429.50
2023-05-10T05:34:52.685Z,97429.56
2023-05-10T05:37:20.216Z,97422.75
2023-05-10T05:39:46.835Z,97432.00
2023-05-10T05:42:14.091Z,97431.25
2023-05-10T05:44:40.714Z,97428.44
2023-05-10T05:47:07.436Z,97432.00
2023-05-10T05:49:34.360Z,97432.34
2023-05-10T05:52:01.698Z,97433.50
2023-05-10T05:54:28.561Z,97437.75
2023-05-10T05:56:56.295Z,97436.41
2023-05-10T05:59:22.805Z,97438.91
2023-05-10T06:01:49.936Z,97438.78
2023-05-10T06:04:17.122Z,97438.09
2023-05-10T06:06:43.828Z,97438.59
2023-05-10T06:09:10.737Z,97446.72
2023-05-10T06:11:37.381Z,97439.06
2023-05-10T06:14:05.476Z,97450.25
2023-05-10T06:16:32.188Z,97452.09
2023-05-10T06:18:58.633Z,97456.16
2023-05-10T06:21:25.204Z,97458.03
2023-05-10T06:23:51.628Z,97457.00
2023-05-10T06:26:18.066Z,97454.75
2023-05-10T06:28:44.540Z,97459.97
2023-05-10T06:31:12.847Z,97449.28
2023-05-10T06:33:39.341Z,97452.09
2023-05-10T06:36:06.007Z,97447.56
2023-05-10T06:38:32.481Z,97448.03
2023-05-10T06:40:58.969Z,97448.88
2023-05-10T06:43:27.183Z,97445.09
2023-05-10T06:45:53.690Z,97447.41
2023-05-10T06:48:20.214Z,97443.72
2023-05-10T06:50:46.673Z,97443.91
2023-05-10T06:53:13.136Z,97443.94
2023-05-10T06:55:39.871Z,97440.88
2023-05-10T06:58:07.129Z,97437.38
2023-05-10T07:00:33.752Z,97432.16
2023-05-10T07:03:00.326Z,97436.63
2023-05-10T07:05:28.853Z,97432.66
2023-05-10T07:07:55.571Z,97426.91
2023-05-10T07:10:22.103Z,97426.03
2023-05-10T07:12:48.774Z,97425.78
2023-05-10T07:15:17.091Z,97428.56
2023-05-10T07:17:45.798Z,97430.34
2023-05-10T07:20:12.911Z,97431.59
2023-05-10T07:22:39.463Z,97424.84
2023-05-10T07:25:06.345Z,97427.44
2023-05-10T07:27:33.513Z,97433.91
2023-05-10T07:29:59.982Z,97435.28
2023-05-10T07:32:26.656Z,97441.28
2023-05-10T07:34:53.306Z,97440.84
2023-05-10T07:37:19.731Z,97429.81
2023-05-10T07:39:46.262Z,97438.41
2023-05-10T07:42:12.690Z,97436.22
2023-05-10T07:44:39.165Z,97439.44
2023-05-10T07:47:05.688Z,97438.41
2023-05-10T07:49:32.229Z,97439.44
2023-05-10T07:51:58.807Z,97437.75
2023-05-10T07:54:25.326Z,97432.88
2023-05-10T07:56:51.929Z,97432.41
2023-05-10T07:59:18.680Z,97436.25
2023-05-10T08:01:45.466Z,97447.28
2023-05-10T08:04:12.663Z,97440.47
2023-05-10T08:06:39.309Z,97444.03
2023-05-10T08:09:05.797Z,97430.59
2023-05-10T08:11:34.308Z,97439.72
2023-05-10T08:14:01.506Z,97437.59
2023-05-10T08:16:28.517Z,97433.72
2023-05-10T08:18:56.398Z,97437.47
2023-05-10T08:21:23.142Z,97445.31
2023-05-10T08:23:50.105Z,97437.59
2023-05-10T08:26:16.632Z,97437.47
2023-05-10T08:28:43.192Z,97436.84
2023-05-10T08:31:09.702Z,97431.00
2023-05-10T08:33:36.276Z,97432.31
2023-05-10T08:36:03.001Z,97439.81
2023-05-10T08:38:29.466Z,97433.34
2023-05-10T08:40:59.734Z,97433.22
2023-05-10T08:43:32.682Z,97435.00
2023-05-10T08:46:01.549Z,97439.28
2023-05-10T08:48:29.910Z,97434.22
2023-05-10T08:50:58.977Z,97434.50
2023-05-10T08:53:27.526Z,97430.50
2023-05-10T08:55:54.395Z,97436.44
2023-05-10T08:58:21.354Z,97434.09
2023-05-10T09:00:52.109Z,97432.72
2023-05-10T09:03:18.794Z,97426.66
2023-05-10T09:05:45.823Z,97423.63
2023-05-10T09:08:12.978Z,97428.41
2023-05-10T09:10:40.524Z,97426.09
2023-05-10T09:13:08.104Z,97423.31
2023-05-10T09:15:34.566Z,97436.19
2023-05-10T09:18:03.323Z,97421.88
2023-05-10T09:20:31.772Z,97425.88
2023-05-10T09:23:00.182Z,97427.38
2023-05-10T09:25:27.110Z,97421.16
2023-05-10T09:27:53.606Z,97425.34
2023-05-10T09:30:30.212Z,97424.97
2023-05-10T09:32:57.868Z,97424.50
2023-05-10T09:35:28.016Z,97421.88
2023-05-10T09:37:56.939Z,97418.50
2023-05-10T09:40:24.844Z,97417.66
2023-05-10T09:43:01.803Z,97415.91
2023-05-10T09:45:29.033Z,97406.25
2023-05-10T09:47:56.371Z,97413.00
2023-05-10T09:50:23.203Z,97414.94
2023-05-10T09:52:54.448Z,97412.16
2023-05-10T09:55:22.738Z,97416.16
2023-05-10T09:57:49.985Z,97405.41
2023-05-10T10:00:20.199Z,97396.81
2023-05-10T10:02:55.245Z,97408.81
2023-05-10T10:07:50.260Z,97404.59
2023-05-10T10:10:16.927Z,97402.47
2023-05-10T10:12:43.720Z,97406.91
2023-05-10T10:15:10.912Z,97409.50
2023-05-10T10:17:39.188Z,97393.31
2023-05-10T10:20:06.080Z,97393.28
2023-05-10T10:22:32.555Z,97392.91
2023-05-10T10:25:00.210Z,97383.63
2023-05-10T10:27:36.022Z,97393.50
2023-05-10T10:30:09.078Z,97386.47
2023-05-10T10:32:44.886Z,97391.34
2023-05-10T10:35:11.546Z,97384.72
2023-05-10T10:37:45.559Z,97388.31
2023-05-10T10:40:26.325Z,97385.72
2023-05-10T10:42:52.937Z,97376.31
2023-05-10T10:45:19.697Z,97378.00
2023-05-10T10:47:46.293Z,97370.28
2023-05-10T10:50:17.254Z,97377.84
2023-05-10T10:52:44.804Z,97375.38
2023-05-10T10:55:15.634Z,97368.63
2023-05-10T10:57:42.421Z,97372.16
2023-05-10T11:00:27.975Z,97374.63
2023-05-10T11:02:58.929Z,97370.03
2023-05-10T11:05:28.557Z,97361.69
2023-05-10T11:07:55.863Z,97373.03
2023-05-10T11:10:22.764Z,97363.72
2023-05-10T11:13:02.221Z,97355.75
2023-05-10T11:15:35.974Z,97357.13
2023-05-10T11:18:17.725Z,97361.59
2023-05-10T11:20:44.346Z,97357.50
2023-05-10T11:23:16.463Z,97358.28
2023-05-10T11:25:44.398Z,97355.69
2023-05-10T11:28:11.335Z,97339.53
2023-05-10T11:30:39.482Z,97347.28
2023-05-10T11:33:06.167Z,97337.38
2023-05-10T11:35:37.642Z,97340.34
2023-05-10T11:38:06.356Z,97340.16
2023-05-10T11:40:32.842Z,97336.25
2023-05-10T11:42:59.708Z,97347.63
2023-05-10T11:45:26.724Z,97336.53
2023-05-10T11:47:53.229Z,97338.06
2023-05-10T11:50:19.898Z,97330.09
2023-05-10T11:52:46.441Z,97332.59
2023-05-10T11:55:13.174Z,97329.34
2023-05-10T11:57:40.366Z,97330.94
2023-05-10T12:00:07.154Z,97330.44
2023-05-10T12:02:34.452Z,97340.50
2023-05-10T12:05:01.555Z,97341.34
2023-05-10T12:07:28.230Z,97333.59
2023-05-10T12:10:08.331Z,97331.06
2023-05-10T12:12:45.100Z,97332.44
2023-05-10T12:15:19.693Z,97330.34
2023-05-10T12:17:46.814Z,97335.34
2023-05-10T12:20:19.571Z,97326.56
2023-05-10T12:22:57.815Z,97332.47
2023-05-10T12:25:30.764Z,97335.72
2023-05-10T12:27:58.674Z,97327.66
2023-05-10T12:30:29.451Z,97326.59
2023-05-10T12:33:00.867Z,97319.84
2023-05-10T12:35:27.408Z,97321.78
2023-05-10T12:37:54.038Z,97322.41
2023-05-10T12:40:21.194Z,97332.44
2023-05-10T12:42:47.760Z,97337.91
2023-05-10T12:45:14.350Z,97334.03
2023-05-10T12:47:43.780Z,97334.31
2023-05-10T12:50:11.299Z,97329.38
2023-05-10T12:52:38.159Z,97332.31
2023-05-10T12:55:04.853Z,97329.75
2023-05-10T12:57:31.680Z,97333.81
2023-05-10T12:59:58.136Z,97329.38
2023-05-10T13:02:24.766Z,97323.63
2023-05-10T13:04:51.468Z,97316.50
2023-05-10T13:07:18.035Z,97325.03
2023-05-10T13:09:44.663Z,97322.78
2023-05-10T13:12:11.158Z,97322.78
2023-05-10T13:14:37.760Z,97321.53
2023-05-10T13:17:04.285Z,97319.03
2023-05-10T13:19:30.829Z,97326.53
2023-05-10T13:21:57.364Z,97317.34
2023-05-10T13:24:23.837Z,97320.06
2023-05-10T13:26:50.475Z,97312.50
2023-05-10T13:29:18.932Z,97311.47
2023-05-10T13:31:45.634Z,97314.22
2023-05-10T13:34:12.249Z,97319.63
2023-05-10T13:36:39.119Z,97305.16
2023-05-10T13:39:06.374Z,97311.25
2023-05-10T13:41:33.075Z,97311.25
2023-05-10T13:43:59.506Z,97306.84
2023-05-10T13:46:26.074Z,97305.97
2023-05-10T13:48:52.605Z,97294.69
2023-05-10T13:51:19.144Z,97297.19
2023-05-10T13:53:45.865Z,97296.72
2023-05-10T13:56:12.404Z,97296.78
2023-05-10T13:58:38.976Z,97290.50
2023-05-10T14:01:05.926Z,97294.66
2023-05-10T14:03:33.642Z,97287.75
2023-05-10T14:06:00.311Z,97292.97
2023-05-10T14:08:28.019Z,97292.44
2023-05-10T14:10:54.491Z,97297.56
2023-05-10T14:13:21.043Z,97288.59
2023-05-10T14:15:47.550Z,97288.38
2023-05-10T14:18:14.055Z,97291.56
2023-05-10T14:20:40.882Z,97294.75
2023-05-10T14:23:08.360Z,97290.31
2023-05-10T14:25:35.870Z,97286.63
2023-05-10T14:28:02.414Z,97285.84
2023-05-10T14:30:28.954Z,97287.13
2023-05-10T14:32:55.473Z,97274.13
2023-05-10T14:35:22.440Z,97274.56
2023-05-10T14:37:49.014Z,97278.34
2023-05-10T14:40:16.282Z,97274.91
2023-05-10T14:42:43.216Z,97280.84
2023-05-10T14:45:10.721Z,97268.63
2023-05-10T14:47:37.309Z,97264.34
2023-05-10T14:50:03.902Z,97276.19
2023-05-10T14:52:31.770Z,97273.53
2023-05-10T14:55:01.307Z,97268.41
2023-05-10T14:57:30.503Z,97268.88
2023-05-10T14:59:57.576Z,97273.28
2023-05-10T15:02:24.505Z,97272.03
2023-05-10T15:04:51.849Z,97266.16
2023-05-10T15:07:19.334Z,97275.13
2023-05-10T15:09:46.088Z,97276.22
2023-05-10T15:12:12.622Z,97272.06
2023-05-10T15:14:39.089Z,97272.03
2023-05-10T15:17:07.241Z,97272.44
2023-05-10T15:19:34.313Z,97270.56
2023-05-10T15:22:00.871Z,97279.16
2023-05-10T15:24:27.392Z,97263.09
2023-05-10T15:26:53.958Z,97269.69
2023-05-10T15:29:23.508Z,97267.38
2023-05-10T15:31:51.133Z,97274.13
2023-05-10T15:34:18.290Z,97269.84
2023-05-10T15:36:45.137Z,97264.81
2023-05-10T15:39:11.936Z,97258.66
2023-05-10T15:41:38.396Z,97260.03
2023-05-10T15:44:04.986Z,97258.16
2023-05-10T15:46:31.634Z,97254.63
2023-05-10T15:48:59.216Z,97246.44
2023-05-10T15:51:26.147Z,97256.28
2023-05-10T15:54:05.731Z,97255.53
2023-05-10T15:56:34.290Z,97244.19
2023-05-10T15:59:00.758Z,97243.31
2023-05-10T16:01:27.476Z,97246.56
2023-05-10T16:03:53.974Z,97247.66
2023-05-10T16:06:20.447Z,97241.78
2023-05-10T16:08:46.919Z,97243.31
2023-05-10T16:11:13.378Z,97252.25
2023-05-10T16:13:39.878Z,97241.38
2023-05-10T16:16:08.976Z,97245.56
2023-05-10T16:18:36.090Z,97257.75
2023-05-10T16:21:02.677Z,97252.75
2023-05-10T16:23:29.289Z,97248.94
2023-05-10T16:25:55.768Z,97248.31
2023-05-10T16:28:22.251Z,97255.22
2023-05-10T16:30:48.966Z,97250.22
2023-05-10T16:33:16.763Z,97259.66
2023-05-10T16:35:43.659Z,97256.06
2023-05-10T16:38:10.170Z,97253.16
2023-05-10T16:40:36.656Z,97256.91
2023-05-10T16:43:03.572Z,97259.44
2023-05-10T16:45:31.963Z,97253.59
2023-05-10T16:47:58.495Z,97255.25
2023-05-10T16:50:25.013Z,97264.50
2023-05-10T16:52:51.452Z,97263.22
2023-05-10T16:55:18.071Z,97257.78
2023-05-10T16:57:44.972Z,97268.28
2023-05-10T17:00:12.364Z,97262.38
2023-05-10T17:02:39.356Z,97267.41
2023-05-10T17:05:06.118Z,97269.31
2023-05-10T17:07:32.604Z,97263.66
2023-05-10T17:09:59.415Z,97274.13
2023-05-10T17:12:26.048Z,97264.91
2023-05-10T17:14:52.601Z,97274.59
2023-05-10T17:17:19.283Z,97279.38
2023-05-10T17:19:45.863Z,97276.66
2023-05-10T17:22:12.665Z,97275.34
2023-05-10T17:24:39.108Z,97274.72
2023-05-10T17:27:05.739Z,97277.25
2023-05-10T17:29:32.580Z,97280.00
2023-05-10T17:31:59.453Z,97279.56
2023-05-10T17:34:26.060Z,97288.34
2023-05-10T17:36:54.274Z,97284.97
2023-05-10T17:39:21.357Z,97291.22
2023-05-10T17:41:47.853Z,97292.38
2023-05-10T17:44:14.390Z,97285.72
2023-05-10T17:46:40.857Z,97292.38
2023-05-10T17:49:07.491Z,97291.91
2023-05-10T17:51:34.274Z,97293.19
2023-05-10T17:54:00.760Z,97285.44
2023-05-10T17:56:27.379Z,97289.78
2023-05-10T17:58:54.273Z,97296.31
2023-05-10T18:01:20.988Z,97297.59
2023-05-10T18:03:49.319Z,97287.03
2023-05-10T18:06:15.858Z,97297.69
2023-05-10T18:08:42.388Z,97295.69
2023-05-10T18:11:08.881Z,97295.22
2023-05-10T18:13:35.350Z,97295.53
2023-05-10T18:16:01.864Z,97304.59
2023-05-10T18:18:28.451Z,97306.28
2023-05-10T18:20:57.802Z,97311.84
2023-05-10T18:23:24.693Z,97309.72
2023-05-10T18:25:51.793Z,97309.31
2023-05-10T18:28:18.542Z,97310.69
2023-05-10T18:30:45.415Z,97313.91
2023-05-10T18:33:12.124Z,97311.97
2023-05-10T18:35:40.184Z,97319.41
2023-05-10T18:38:06.982Z,97323.19
2023-05-10T18:40:33.471Z,97324.38
2023-05-10T18:43:00.017Z,97322.13
2023-05-10T18:45:26.477Z,97324.53
2023-05-10T18:47:53.029Z,97326.22
2023-05-10T18:50:19.834Z,97324.78
2023-05-10T18:52:46.716Z,97329.81
2023-05-10T18:55:13.472Z,97332.16
2023-05-10T18:57:42.766Z,97338.59
2023-05-10T19:00:12.852Z,97335.25
2023-05-10T19:02:39.895Z,97341.09
2023-05-10T19:05:06.904Z,97345.47
2023-05-10T19:07:33.688Z,97343.44
2023-05-10T19:10:00.311Z,97347.31
2023-05-10T19:12:26.850Z,97347.81
2023-05-10T19:14:53.312Z,97351.25
2023-05-10T19:17:19.766Z,97351.41
2023-05-10T19:19:46.219Z,97348.34
2023-05-10T19:22:12.686Z,97352.56
2023-05-10T19:24:39.268Z,97356.50
2023-05-10T19:27:05.745Z,97357.84
2023-05-10T19:29:32.383Z,97359.91
2023-05-10T19:31:59.090Z,97356.59
2023-05-10T19:34:25.705Z,97353.16
2023-05-10T19:36:52.274Z,97355.22
2023-05-10T19:39:19.572Z,97360.84
2023-05-10T19:41:47.662Z,97356.34
2023-05-10T19:44:15.385Z,97353.88
2023-05-10T19:46:42.211Z,97353.44
2023-05-10T19:49:08.806Z,97353.63
2023-05-10T19:51:35.359Z,97354.53
2023-05-10T19:54:02.086Z,97353.97
2023-05-10T19:56:29.668Z,97351.47
2023-05-10T19:58:56.248Z,97350.16
2023-05-10T20:01:22.752Z,97347.75
2023-05-10T20:03:49.314Z,97355.22
2023-05-10T20:06:15.932Z,97341.97
2023-05-10T20:08:42.435Z,97346.63
2023-05-10T20:11:09.050Z,97350.63
2023-05-10T20:13:35.580Z,97355.13
2023-05-10T20:16:02.529Z,97358.25
2023-05-10T20:18:29.139Z,97348.50
2023-05-10T20:20:56.163Z,97355.22
2023-05-10T20:23:22.750Z,97346.25
2023-05-10T20:25:49.470Z,97352.91
2023-05-10T20:28:23.091Z,97353.28
2023-05-10T20:30:53.943Z,97356.81
2023-05-10T20:33:21.050Z,97360.28
2023-05-10T20:35:47.545Z,97362.56
2023-05-10T20:38:14.218Z,97359.97
2023-05-10T20:40:40.825Z,97358.25
2023-05-10T20:43:07.289Z,97365.53
2023-05-10T20:45:33.901Z,97366.47
2023-05-10T20:48:01.197Z,97363.94
2023-05-10T20:50:27.896Z,97361.97
2023-05-10T20:52:54.421Z,97356.56
2023-05-10T20:55:20.976Z,97363.28
2023-05-10T20:57:47.471Z,97355.81
2023-05-10T21:00:14.459Z,97354.50
2023-05-10T21:02:43.348Z,97355.59
2023-05-10T21:05:10.129Z,97355.44
2023-05-10T21:07:36.720Z,97353.63
2023-05-10T21:10:03.280Z,97352.00
2023-05-10T21:12:29.738Z,97360.19
2023-05-10T21:14:56.209Z,97353.53
2023-05-10T21:17:22.652Z,97346.97
2023-05-10T21:19:49.095Z,97357.28
2023-05-10T21:22:15.632Z,97348.97
2023-05-10T21:24:42.128Z,97355.19
2023-05-10T21:27:09.017Z,97349.75
2023-05-10T21:29:35.530Z,97346.50
2023-05-10T21:32:02.058Z,97346.44
2023-05-10T21:34:28.967Z,97346.44
2023-05-10T21:36:55.402Z,97349.59
2023-05-10T21:39:21.861Z,97352.31
2023-05-10T21:41:48.341Z,97350.69
2023-05-10T21:44:14.844Z,97349.47
2023-05-10T21:46:41.301Z,97343.84
2023-05-10T21:49:08.224Z,97350.66
2023-05-10T21:51:34.689Z,97346.25
2023-05-10T21:54:01.586Z,97341.78
2023-05-10T21:56:28.070Z,97350.72
2023-05-10T21:58:54.766Z,97345.53
2023-05-10T22:01:21.277Z,97357.25
2023-05-10T22:03:47.793Z,97363.69
2023-05-10T22:06:14.285Z,97358.63
2023-05-10T22:08:40.854Z,97355.03
2023-05-10T22:11:07.286Z,97358.78
2023-05-10T22:13:33.758Z,97362.72
2023-05-10T22:16:00.591Z,97351.84
2023-05-10T22:18:27.170Z,97360.09
2023-05-10T22:20:53.681Z,97354.16
2023-05-10T22:23:20.273Z,97357.31
2023-05-10T22:25:46.759Z,97352.38
2023-05-10T22:28:13.206Z,97359.97
2023-05-10T22:30:41.270Z,97355.63
2023-05-10T22:33:07.724Z,97359.72
2023-05-10T22:35:34.226Z,97357.03
2023-05-10T22:38:00.742Z,97358.16
2023-05-10T22:40:27.406Z,97358.78
2023-05-10T22:42:53.856Z,97356.66
2023-05-10T22:45:20.519Z,97355.09
2023-05-10T22:47:47.269Z,97351.06
2023-05-10T22:50:14.280Z,97354.19
2023-05-10T22:52:40.800Z,97362.53
2023-05-10T22:55:07.486Z,97360.44
2023-05-10T22:57:34.246Z,97362.47
2023-05-10T23:00:00.904Z,97366.53
2023-05-10T23:02:27.419Z,97361.84
2023-05-10T23:04:53.888Z,97365.69
2023-05-10T23:07:20.510Z,97355.44
2023-05-10T23:09:47.014Z,97356.31
2023-05-10T23:12:13.487Z,97361.88
2023-05-10T23:14:41.469Z,97355.66
2023-05-10T23:17:08.275Z,97358.00
2023-05-10T23:19:34.726Z,97349.38
2023-05-10T23:22:02.887Z,97356.47
2023-05-10T23:24:29.834Z,97357.66
2023-05-10T23:26:57.296Z,97351.44
2023-05-10T23:29:27.087Z,97351.38
2023-05-10T23:31:53.981Z,97352.63
2023-05-10T23:34:20.465Z,97353.50
2023-05-10T23:36:46.929Z,97353.78
2023-05-10T23:39:13.537Z,97347.66
2023-05-10T23:41:40.025Z,97345.44
2023-05-10T23:44:06.591Z,97342.25
2023-05-10T23:46:33.097Z,97343.78
2023-05-10T23:48:59.604Z,97344.97
2023-05-10T23:52:14.500Z,97345.97
2023-05-10T23:55:02.331Z,97340.41
2023-05-10T23:57:28.824Z,97339.88
2023-05-10T23:59:55.441Z,97343.00
